Time;durP1;ratioP1;P1;durP2;ratioP2;P2;SDS_P1;SDS_P2;PMS_P1;PMS_P2;Temp;Humidity;BMP_temperature;BMP_pressure;BME280_temperature;BME280_humidity;BME280_pressure;Samples;Min_cycle;Max_cycle;Signal;HPM_P1;HPM_P2
2022/05/25 00:01:25;;;;;;;6.47;2.07;;;11.30;99.90;;;;;;5053895;28;20252;-63
2022/05/25 00:03:53;;;;;;;4.67;2.47;;;11.30;99.90;;;;;;5060858;28;20189;-63
2022/05/25 00:06:23;;;;;;;3.03;2.30;;;11.20;99.90;;;;;;5052440;28;20272;-63
2022/05/25 00:08:51;;;;;;;2.73;2.10;;;11.20;99.90;;;;;;5057846;28;20259;-63
2022/05/25 00:11:21;;;;;;;2.10;1.90;;;11.20;99.90;;;;;;5055283;28;20288;-63
2022/05/25 00:13:51;;;;;;;4.97;2.03;;;11.20;99.90;;;;;;5053936;28;20246;-63
2022/05/25 00:16:19;;;;;;;4.73;2.20;;;11.10;99.90;;;;;;5060856;28;20220;-63
2022/05/25 00:21:33;;;;;;;2.50;2.00;;;11.10;99.90;;;;;;5054728;28;20300;-63
2022/05/25 00:24:03;;;;;;;6.33;2.63;;;11.00;99.90;;;;;;5053550;28;20287;-63
2022/05/25 00:26:33;;;;;;;4.33;2.60;;;11.00;99.90;;;;;;5053256;28;20196;-63
2022/05/25 00:29:04;;;;;;;2.83;2.43;;;11.00;99.90;;;;;;5051663;28;20243;-63
2022/05/25 00:31:33;;;;;;;3.00;2.27;;;10.90;99.90;;;;;;5053545;28;20201;-63
2022/05/25 00:34:01;;;;;;;5.13;2.47;;;10.90;99.90;;;;;;5053463;28;20210;-63
2022/05/25 00:36:30;;;;;;;4.20;2.27;;;10.90;99.90;;;;;;5056707;28;20199;-63
2022/05/25 00:38:58;;;;;;;3.47;2.47;;;10.90;99.90;;;;;;5048877;28;20208;-63
2022/05/25 00:41:28;;;;;;;3.73;3.00;;;10.80;99.90;;;;;;5044762;28;20974;-63
2022/05/25 00:43:57;;;;;;;2.97;2.50;;;10.80;99.90;;;;;;5052030;28;20268;-63
2022/05/25 00:46:28;;;;;;;3.67;2.50;;;10.80;99.90;;;;;;5053724;28;20246;-63
2022/05/25 00:49:01;;;;;;;3.20;2.90;;;10.80;99.90;;;;;;5053302;28;20204;-63
2022/05/25 00:51:33;;;;;;;7.23;2.90;;;10.70;99.90;;;;;;5050248;28;20197;-63
2022/05/25 00:54:06;;;;;;;5.53;2.83;;;10.70;99.90;;;;;;5049097;28;20219;-63
2022/05/25 00:56:39;;;;;;;5.07;2.60;;;10.70;99.90;;;;;;5042348;28;20188;-63
2022/05/25 00:59:11;;;;;;;4.50;2.87;;;10.70;99.90;;;;;;5051503;28;20200;-63
2022/05/25 01:01:43;;;;;;;3.97;3.00;;;10.60;99.90;;;;;;5048536;28;20629;-63
2022/05/25 01:04:12;;;;;;;5.30;3.07;;;10.50;99.90;;;;;;5085405;28;20272;-63
2022/05/25 01:07:15;;;;;;;7.17;3.40;;;10.50;99.90;;;;;;5048967;28;20271;-63
2022/05/25 01:09:56;;;;;;;6.13;2.90;;;10.50;99.90;;;;;;5049385;28;20608;-63
2022/05/25 01:12:41;;;;;;;5.10;2.97;;;10.50;99.90;;;;;;5047292;28;20200;-63
2022/05/25 01:15:16;;;;;;;4.57;2.93;;;10.50;99.90;;;;;;5052574;28;20195;-63
2022/05/25 01:17:58;;;;;;;5.60;3.07;;;10.50;99.90;;;;;;5053019;28;20200;-63
2022/05/25 01:20:34;;;;;;;5.50;3.13;;;10.50;99.90;;;;;;5052298;28;20185;-63
2022/05/25 01:23:52;;;;;;;9.37;3.50;;;10.50;99.90;;;;;;5046945;28;20200;-63
2022/05/25 01:26:40;;;;;;;4.77;3.10;;;10.40;99.90;;;;;;5053608;28;20203;-63
2022/05/25 01:29:21;;;;;;;13.03;3.30;;;10.40;99.90;;;;;;5050187;28;20215;-63
2022/05/25 01:31:55;;;;;;;3.77;3.07;;;10.40;99.90;;;;;;5051878;28;20655;-63
2022/05/25 01:34:31;;;;;;;5.47;3.40;;;10.40;99.90;;;;;;5052017;28;20561;-63
2022/05/25 01:37:08;;;;;;;5.77;3.07;;;10.40;99.90;;;;;;5056333;28;20198;-63
2022/05/25 01:39:41;;;;;;;2.90;2.67;;;10.40;99.90;;;;;;5052068;28;20266;-63
2022/05/25 01:42:19;;;;;;;7.83;2.87;;;10.30;99.90;;;;;;5051536;28;20652;-63
2022/05/25 01:44:51;;;;;;;8.43;3.43;;;10.30;99.90;;;;;;5049063;28;20200;-63
2022/05/25 01:47:23;;;;;;;6.87;3.50;;;10.20;99.90;;;;;;5082425;28;20295;-63
2022/05/25 01:50:00;;;;;;;7.63;3.43;;;10.20;99.90;;;;;;5056605;28;20279;-63
2022/05/25 01:52:35;;;;;;;5.93;3.47;;;10.30;99.90;;;;;;5051901;28;20298;-63
2022/05/25 01:55:10;;;;;;;4.40;3.40;;;10.30;99.90;;;;;;5051484;28;20204;-63
2022/05/25 01:57:47;;;;;;;5.27;3.40;;;10.30;99.90;;;;;;5049693;28;20228;-63
2022/05/25 02:00:28;;;;;;;4.37;3.50;;;10.20;99.90;;;;;;5048150;28;20659;-63
2022/05/25 02:05:53;;;;;;;7.90;3.50;;;10.10;99.90;;;;;;5047044;28;20545;-63
2022/05/25 02:08:30;;;;;;;10.83;3.97;;;10.10;99.90;;;;;;5080537;28;20234;-63
2022/05/25 02:11:09;;;;;;;7.23;3.50;;;10.10;99.90;;;;;;5051674;28;20195;-63
2022/05/25 02:13:54;;;;;;;8.47;3.80;;;10.10;99.90;;;;;;5063081;28;20220;-63
2022/05/25 02:16:32;;;;;;;10.93;4.50;;;10.10;99.90;;;;;;5045627;28;20288;-63
2022/05/25 02:19:09;;;;;;;6.23;3.87;;;10.10;99.90;;;;;;5046557;28;20666;-63
2022/05/25 02:21:46;;;;;;;7.33;4.27;;;10.10;99.90;;;;;;5044830;28;20279;-63
2022/05/25 02:24:21;;;;;;;7.67;4.23;;;10.10;99.90;;;;;;5054670;28;20267;-63
2022/05/25 02:26:53;;;;;;;6.27;4.20;;;10.10;99.90;;;;;;5051497;28;20235;-63
2022/05/25 02:29:26;;;;;;;7.47;4.20;;;10.10;99.90;;;;;;5081297;28;20287;-63
2022/05/25 02:31:58;;;;;;;8.23;4.67;;;10.10;99.90;;;;;;5046352;28;20203;-63
2022/05/25 02:34:31;;;;;;;9.07;4.83;;;10.10;99.90;;;;;;5055089;28;20225;-63
2022/05/25 02:37:00;;;;;;;5.43;4.77;;;10.10;99.90;;;;;;5055743;28;20279;-63
2022/05/25 02:39:29;;;;;;;8.73;5.20;;;10.10;99.90;;;;;;5050218;28;20224;-63
2022/05/25 02:41:58;;;;;;;5.30;4.77;;;10.00;99.90;;;;;;5053079;28;20280;-63
2022/05/25 02:44:26;;;;;;;13.50;5.20;;;10.00;99.90;;;;;;5086083;28;20683;-63
2022/05/25 02:46:55;;;;;;;8.33;5.43;;;10.10;99.90;;;;;;5087259;28;20197;-63
2022/05/25 02:49:24;;;;;;;7.17;5.50;;;10.10;99.90;;;;;;5054056;28;20250;-63
2022/05/25 02:51:53;;;;;;;5.70;5.13;;;10.00;99.90;;;;;;5055074;28;20648;-63
2022/05/25 02:54:22;;;;;;;7.03;5.30;;;10.00;99.90;;;;;;5046352;28;20303;-63
2022/05/25 02:56:50;;;;;;;8.93;5.50;;;10.00;99.90;;;;;;5048138;28;20279;-63
2022/05/25 02:59:18;;;;;;;11.93;6.03;;;9.90;99.90;;;;;;5050989;28;20201;-63
2022/05/25 03:01:47;;;;;;;6.77;5.37;;;9.90;99.90;;;;;;5055162;28;20204;-63
2022/05/25 03:04:15;;;;;;;8.93;5.97;;;9.90;99.90;;;;;;5052675;28;20220;-63
2022/05/25 03:06:44;;;;;;;8.27;5.67;;;9.80;99.90;;;;;;5053452;28;20185;-63
2022/05/25 03:09:14;;;;;;;9.73;5.80;;;9.90;99.90;;;;;;5052686;28;20189;-62
2022/05/25 03:11:45;;;;;;;7.30;5.40;;;9.90;99.90;;;;;;5054208;28;20283;-63
2022/05/25 03:14:14;;;;;;;10.07;5.53;;;9.80;99.90;;;;;;5052080;28;20213;-63
2022/05/25 03:16:42;;;;;;;11.07;6.07;;;9.80;99.90;;;;;;5055240;28;20579;-63
2022/05/25 03:19:10;;;;;;;11.80;5.80;;;9.80;99.90;;;;;;5049065;28;20731;-63
2022/05/25 03:21:39;;;;;;;9.53;5.70;;;9.80;99.90;;;;;;5055080;28;20622;-63
2022/05/25 03:24:08;;;;;;;10.10;6.07;;;9.80;99.90;;;;;;5052692;28;20200;-63
2022/05/25 03:26:38;;;;;;;12.53;6.00;;;9.80;99.90;;;;;;5052719;28;20195;-63
2022/05/25 03:29:06;;;;;;;8.60;6.30;;;9.70;99.90;;;;;;5086640;28;20199;-63
2022/05/25 03:31:36;;;;;;;8.00;5.60;;;9.70;99.90;;;;;;5054545;28;20193;-63
2022/05/25 03:34:04;;;;;;;11.07;5.83;;;9.70;99.90;;;;;;5054393;28;20212;-63
2022/05/25 03:36:32;;;;;;;7.77;5.93;;;9.70;99.90;;;;;;5054715;28;20199;-63
2022/05/25 03:39:01;;;;;;;10.53;5.97;;;9.70;99.90;;;;;;5059674;28;20527;-63
2022/05/25 03:41:29;;;;;;;7.77;5.80;;;9.70;99.90;;;;;;5086430;28;20283;-63
2022/05/25 03:43:59;;;;;;;6.43;5.70;;;9.70;99.90;;;;;;5054515;28;20215;-63
2022/05/25 03:46:27;;;;;;;12.07;5.93;;;9.70;99.90;;;;;;5053564;28;20211;-63
2022/05/25 03:48:55;;;;;;;11.77;5.90;;;9.60;99.90;;;;;;5053950;28;20197;-63
2022/05/25 03:51:23;;;;;;;12.00;5.77;;;9.60;99.90;;;;;;5054454;28;20193;-63
2022/05/25 03:53:52;;;;;;;11.67;5.13;;;9.60;99.90;;;;;;5050226;28;20285;-63
2022/05/25 03:56:20;;;;;;;12.60;5.57;;;9.60;99.90;;;;;;5053957;28;20213;-63
2022/05/25 03:58:48;;;;;;;13.10;5.50;;;9.60;99.90;;;;;;5054275;28;20590;-63
2022/05/25 04:01:18;;;;;;;10.77;5.50;;;9.60;99.90;;;;;;5053908;28;20276;-64
2022/05/25 04:03:48;;;;;;;12.50;5.40;;;9.60;99.90;;;;;;5055003;28;20827;-63
2022/05/25 04:06:16;;;;;;;8.43;5.57;;;9.60;99.90;;;;;;5049847;28;20188;-63
2022/05/25 04:08:45;;;;;;;8.30;5.80;;;9.70;99.90;;;;;;5054044;28;20192;-63
2022/05/25 04:11:13;;;;;;;7.47;5.77;;;9.70;99.90;;;;;;5043974;28;20199;-63
2022/05/25 04:13:41;;;;;;;9.70;5.67;;;9.60;99.90;;;;;;5052884;28;20201;-63
2022/05/25 04:16:10;;;;;;;13.80;5.50;;;9.60;99.90;;;;;;5052806;28;20377;-63
2022/05/25 04:18:39;;;;;;;9.13;5.23;;;9.60;99.90;;;;;;5054336;28;20644;-63
2022/05/25 04:21:07;;;;;;;7.63;5.50;;;9.70;99.90;;;;;;5052502;28;20568;-63
2022/05/25 04:23:36;;;;;;;10.67;5.07;;;9.70;99.90;;;;;;5048486;28;20275;-63
2022/05/25 04:26:04;;;;;;;12.10;5.40;;;9.70;99.90;;;;;;5085838;28;20243;-63
2022/05/25 04:28:33;;;;;;;8.57;5.93;;;9.80;99.90;;;;;;5047780;28;20663;-63
2022/05/25 04:31:01;;;;;;;8.63;5.10;;;9.80;99.90;;;;;;5054123;28;20288;-63
2022/05/25 04:33:30;;;;;;;9.50;5.70;;;9.80;99.90;;;;;;5053580;28;20275;-63
2022/05/25 04:36:00;;;;;;;11.93;5.63;;;9.90;99.90;;;;;;5052433;28;20250;-63
2022/05/25 04:38:28;;;;;;;8.90;6.33;;;9.90;99.90;;;;;;5053921;28;20552;-63
2022/05/25 04:40:57;;;;;;;7.33;5.00;;;9.90;99.90;;;;;;5048797;28;20207;-63
2022/05/25 04:43:28;;;;;;;6.63;4.80;;;9.90;99.90;;;;;;5050985;28;20227;-63
2022/05/25 04:45:59;;;;;;;8.77;5.10;;;9.90;99.90;;;;;;5053543;28;20219;-63
2022/05/25 04:48:28;;;;;;;6.63;4.47;;;10.00;99.90;;;;;;5049630;28;20204;-63
2022/05/25 04:50:57;;;;;;;5.00;4.43;;;10.10;99.90;;;;;;5052213;28;20197;-63
2022/05/25 04:53:28;;;;;;;8.63;5.30;;;10.10;99.90;;;;;;5053225;28;20547;-63
2022/05/25 04:58:45;;;;;;;7.90;4.83;;;10.20;99.90;;;;;;5068085;28;20259;-63
2022/05/25 05:01:17;;;;;;;6.73;4.80;;;10.40;99.90;;;;;;5036093;28;20199;-63
2022/05/25 05:03:46;;;;;;;9.13;4.60;;;10.40;99.90;;;;;;5052674;28;20199;-63
2022/05/25 05:06:15;;;;;;;10.90;4.93;;;10.50;99.90;;;;;;5044560;28;20193;-64
2022/05/25 05:08:50;;;;;;;4.67;4.23;;;10.60;99.90;;;;;;5042272;28;20648;-63
2022/05/25 05:11:19;;;;;;;6.03;4.33;;;10.60;99.90;;;;;;5052396;28;20193;-63
2022/05/25 05:13:48;;;;;;;9.57;4.30;;;10.70;99.90;;;;;;5047669;28;20231;-63
2022/05/25 05:16:18;;;;;;;7.50;4.60;;;10.80;99.90;;;;;;5052509;28;20248;-63
2022/05/25 05:18:47;;;;;;;4.90;4.50;;;10.90;99.90;;;;;;5075872;28;20621;-63
2022/05/25 05:21:15;;;;;;;7.50;4.27;;;10.90;99.90;;;;;;5052625;28;20192;-63
2022/05/25 05:23:44;;;;;;;6.73;4.50;;;11.00;99.90;;;;;;5051849;28;20220;-63
2022/05/25 05:26:14;;;;;;;9.73;4.20;;;11.10;99.90;;;;;;5051791;28;20242;-63
2022/05/25 05:28:45;;;;;;;6.90;4.60;;;11.10;99.90;;;;;;5052285;28;20255;-63
2022/05/25 05:31:14;;;;;;;5.77;4.30;;;11.20;99.90;;;;;;5052839;28;20197;-64
2022/05/25 05:33:43;;;;;;;9.27;4.20;;;11.30;99.90;;;;;;5055198;28;20192;-63
2022/05/25 05:36:15;;;;;;;12.23;4.63;;;11.40;99.90;;;;;;5051738;28;20704;-63
2022/05/25 05:38:49;;;;;;;6.90;4.30;;;11.50;99.90;;;;;;5051289;28;20217;-64
2022/05/25 05:41:21;;;;;;;8.53;4.23;;;11.60;99.90;;;;;;5052432;28;20188;-63
2022/05/25 05:43:50;;;;;;;6.43;4.10;;;11.70;99.90;;;;;;5051235;28;20229;-64
2022/05/25 05:46:20;;;;;;;5.57;3.83;;;11.80;99.90;;;;;;5045295;28;20201;-63
2022/05/25 05:48:48;;;;;;;10.37;4.17;;;11.90;99.90;;;;;;5051087;28;20541;-63
2022/05/25 05:51:17;;;;;;;8.20;4.00;;;12.00;99.90;;;;;;5059443;28;20672;-63
2022/05/25 05:53:45;;;;;;;5.03;3.70;;;12.20;99.90;;;;;;5052093;28;20656;-63
2022/05/25 05:56:14;;;;;;;8.20;4.20;;;12.30;99.90;;;;;;5054116;28;20229;-63
2022/05/25 05:58:47;;;;;;;11.90;4.00;;;12.30;99.90;;;;;;5054007;28;20235;-63
2022/05/25 06:01:15;;;;;;;6.50;3.63;;;12.30;99.90;;;;;;5051490;28;20220;-64
2022/05/25 06:03:44;;;;;;;10.40;4.63;;;12.40;99.90;;;;;;5052477;28;20672;-63
2022/05/25 06:06:12;;;;;;;8.47;3.67;;;12.50;99.90;;;;;;5050231;28;20620;-63
2022/05/25 06:08:42;;;;;;;8.77;3.83;;;12.60;99.90;;;;;;5058290;28;20262;-63
2022/05/25 06:11:10;;;;;;;6.73;3.73;;;12.80;99.90;;;;;;5057226;28;20805;-63
2022/05/25 06:13:39;;;;;;;7.23;3.50;;;12.90;99.90;;;;;;5041062;28;20201;-63
2022/05/25 06:21:39;;;;;;;8.10;3.70;;;13.20;99.90;;;;;;5056455;28;20199;-63
2022/05/25 06:24:08;;;;;;;6.77;4.00;;;13.10;99.90;;;;;;5056397;28;20203;-63
2022/05/25 06:26:36;;;;;;;6.97;3.43;;;13.10;99.90;;;;;;5056254;28;20189;-63
2022/05/25 06:29:05;;;;;;;7.13;3.23;;;13.30;99.90;;;;;;5056648;28;20196;-63
2022/05/25 06:31:35;;;;;;;3.00;2.80;;;13.40;99.90;;;;;;5058124;28;20568;-63
2022/05/25 06:34:03;;;;;;;8.20;3.60;;;13.50;99.90;;;;;;5056274;28;20327;-63
2022/05/25 06:36:31;;;;;;;4.27;3.17;;;13.50;99.90;;;;;;5055753;28;20242;-63
2022/05/25 06:39:00;;;;;;;11.60;3.43;;;13.70;99.90;;;;;;5055546;28;20217;-63
2022/05/25 06:41:29;;;;;;;6.10;2.80;;;13.80;99.90;;;;;;5055365;28;20280;-63
2022/05/25 06:43:58;;;;;;;8.73;3.00;;;13.80;99.90;;;;;;5056419;28;20288;-64
2022/05/25 06:46:26;;;;;;;8.07;2.83;;;14.00;99.90;;;;;;5055200;28;20279;-63
2022/05/25 06:48:57;;;;;;;4.67;2.93;;;14.00;99.90;;;;;;5054842;28;20196;-64
2022/05/25 06:51:28;;;;;;;8.53;2.90;;;14.00;99.90;;;;;;5055923;28;20263;-63
2022/05/25 06:54:05;;;;;;;7.60;2.70;;;14.10;99.90;;;;;;5056122;28;20276;-63
2022/05/25 06:56:34;;;;;;;4.03;2.70;;;14.20;99.90;;;;;;5055969;28;20213;-63
2022/05/25 06:59:03;;;;;;;2.87;2.60;;;14.20;99.90;;;;;;5059370;28;20200;-63
2022/05/25 07:01:32;;;;;;;9.07;2.70;;;14.40;99.90;;;;;;5056145;28;20714;-63
2022/05/25 07:04:02;;;;;;;3.77;2.50;;;14.50;99.90;;;;;;5056041;28;20797;-63
2022/05/25 07:06:31;;;;;;;8.87;2.87;;;14.60;99.90;;;;;;5055849;28;20662;-63
2022/05/25 07:08:59;;;;;;;4.83;2.30;;;14.70;99.90;;;;;;5054501;28;20299;-63
2022/05/25 07:11:33;;;;;;;2.60;2.40;;;14.80;99.90;;;;;;5047072;28;20188;-63
2022/05/25 07:14:02;;;;;;;3.13;2.13;;;14.90;99.90;;;;;;5055601;28;20194;-63
2022/05/25 07:16:31;;;;;;;7.33;3.10;;;15.00;99.90;;;;;;5035697;28;20629;-63
2022/05/25 07:19:01;;;;;;;4.47;2.13;;;15.20;99.90;;;;;;5050243;28;20201;-63
2022/05/25 07:21:31;;;;;;;2.50;1.87;;;15.40;99.90;;;;;;5054888;28;20293;-63
2022/05/25 07:24:02;;;;;;;5.83;2.20;;;15.60;99.90;;;;;;5055420;28;20700;-63
2022/05/25 07:26:32;;;;;;;8.13;2.27;;;16.00;99.90;;;;;;5055232;28;20227;-63
2022/05/25 07:29:02;;;;;;;4.97;2.00;;;15.90;99.90;;;;;;5055376;28;20205;-63
2022/05/25 07:31:38;;;;;;;3.37;1.87;;;16.00;99.90;;;;;;5054811;28;20195;-63
2022/05/25 07:34:11;;;;;;;3.63;2.10;;;16.10;99.90;;;;;;5064451;28;20194;-63
2022/05/25 07:36:40;;;;;;;5.10;2.10;;;16.20;99.90;;;;;;5054272;28;20241;-64
2022/05/25 07:39:11;;;;;;;3.33;1.97;;;15.90;99.90;;;;;;5053912;28;20199;-64
2022/05/25 07:41:42;;;;;;;9.10;2.83;;;15.70;99.90;;;;;;5054405;28;20189;-64
2022/05/25 07:44:15;;;;;;;3.47;2.03;;;15.50;99.90;;;;;;5046132;28;20633;-63
2022/05/25 07:46:44;;;;;;;5.83;1.97;;;15.50;99.90;;;;;;5054991;28;20191;-64
2022/05/25 07:49:13;;;;;;;5.90;2.40;;;15.60;99.90;;;;;;5054857;28;20650;-64
2022/05/25 07:51:42;;;;;;;6.90;2.00;;;15.80;99.90;;;;;;5054864;28;20200;-64
2022/05/25 07:54:11;;;;;;;5.47;1.87;;;16.10;99.90;;;;;;5054866;28;20203;-63
2022/05/25 07:56:40;;;;;;;4.67;2.30;;;16.10;99.90;;;;;;5054889;28;20398;-64
2022/05/25 07:59:10;;;;;;;3.60;1.90;;;16.20;99.90;;;;;;5055000;28;20195;-64
2022/05/25 08:07:20;;;;;;;5.03;2.10;;;16.30;99.90;;;;;;5053665;28;20201;-61
2022/05/25 08:09:51;;;;;;;4.17;2.00;;;16.50;99.90;;;;;;5053883;28;20192;-64
2022/05/25 08:12:20;;;;;;;8.90;1.90;;;17.00;99.90;;;;;;5053463;28;20223;-64
2022/05/25 08:14:49;;;;;;;3.60;2.00;;;17.70;99.90;;;;;;5054334;28;20226;-64
2022/05/25 08:17:17;;;;;;;4.40;1.80;;;17.90;99.90;;;;;;5054370;28;20274;-62
2022/05/25 08:19:47;;;;;;;3.47;1.77;;;18.20;99.90;;;;;;5054691;28;20193;-61
2022/05/25 08:22:16;;;;;;;3.97;1.80;;;18.70;99.90;;;;;;5053848;28;20280;-61
2022/05/25 08:24:44;;;;;;;4.87;1.80;;;18.60;99.90;;;;;;5054162;28;20206;-61
2022/05/25 08:27:12;;;;;;;3.10;1.80;;;18.40;99.90;;;;;;5050407;28;20189;-62
2022/05/25 08:29:43;;;;;;;4.43;1.93;;;18.30;99.90;;;;;;5035468;28;20773;-62
2022/05/25 08:32:12;;;;;;;4.03;2.10;;;18.40;99.90;;;;;;5057728;28;20596;-62
2022/05/25 08:34:40;;;;;;;3.43;1.67;;;18.90;99.90;;;;;;5056358;28;20269;-61
2022/05/25 08:37:13;;;;;;;2.13;1.70;;;19.40;99.90;;;;;;5052290;28;20216;-61
2022/05/25 08:39:41;;;;;;;3.63;1.73;;;19.20;99.90;;;;;;5054153;28;20227;-62
2022/05/25 08:42:13;;;;;;;3.40;1.77;;;19.40;99.90;;;;;;5053868;28;20281;-62
2022/05/25 08:44:42;;;;;;;2.30;1.70;;;19.30;99.90;;;;;;5052587;28;20259;-62
2022/05/25 08:47:13;;;;;;;3.63;1.50;;;19.30;99.90;;;;;;5080074;28;20186;-62
2022/05/25 08:49:43;;;;;;;4.53;1.63;;;19.20;99.90;;;;;;5046282;28;20209;-62
2022/05/25 08:52:24;;;;;;;2.57;1.30;;;18.80;99.90;;;;;;5050119;28;20719;-62
2022/05/25 08:54:53;;;;;;;3.20;1.50;;;18.30;99.90;;;;;;5054020;28;20283;-61
2022/05/25 08:57:27;;;;;;;1.40;1.30;;;18.20;99.90;;;;;;5045590;28;20213;-61
2022/05/25 09:00:01;;;;;;;2.97;1.37;;;18.10;99.90;;;;;;5035109;28;20205;-61
2022/05/25 09:02:34;;;;;;;1.33;1.20;;;17.70;99.90;;;;;;5053430;28;20647;-63
2022/05/25 09:05:16;;;;;;;2.17;1.40;;;17.40;99.90;;;;;;5053239;28;20204;-61
2022/05/25 09:07:56;;;;;;;2.47;1.30;;;17.70;99.90;;;;;;5053531;28;20712;-61
2022/05/25 09:10:28;;;;;;;6.30;1.47;;;17.90;99.90;;;;;;5053391;28;20212;-63
2022/05/25 09:13:01;;;;;;;2.97;1.43;;;18.00;99.90;;;;;;5052857;28;20200;-63
2022/05/25 09:15:35;;;;;;;1.40;1.30;;;18.10;99.90;;;;;;5033613;28;20189;-64
2022/05/25 09:18:09;;;;;;;3.33;1.30;;;18.40;99.90;;;;;;5052427;28;20220;-64
2022/05/25 09:20:41;;;;;;;4.47;1.27;;;18.80;99.90;;;;;;5053131;28;20196;-64
2022/05/25 09:23:11;;;;;;;4.40;1.40;;;19.10;99.90;;;;;;5050955;28;20193;-64
2022/05/25 09:25:41;;;;;;;0.93;0.90;;;19.70;99.90;;;;;;5052966;28;20213;-62
2022/05/25 09:28:16;;;;;;;1.07;1.00;;;19.80;99.90;;;;;;5053226;28;20280;-62
2022/05/25 09:30:49;;;;;;;3.13;1.20;;;19.80;99.90;;;;;;5052031;28;20208;-61
2022/05/25 09:33:25;;;;;;;2.23;1.10;;;20.00;99.90;;;;;;5053019;28;20195;-61
2022/05/25 09:35:58;;;;;;;3.13;1.20;;;20.00;99.90;;;;;;5052753;28;20229;-61
2022/05/25 09:38:43;;;;;;;1.63;1.00;;;19.40;99.90;;;;;;5053173;28;20280;-61
2022/05/25 09:41:14;;;;;;;1.70;1.00;;;19.00;99.90;;;;;;5053150;28;20271;-64
2022/05/25 09:43:44;;;;;;;2.77;1.17;;;19.70;99.90;;;;;;5044174;28;20204;-60
2022/05/25 09:46:20;;;;;;;1.47;1.10;;;20.50;99.90;;;;;;5053141;28;20197;-61
2022/05/25 09:48:51;;;;;;;2.33;1.10;;;20.70;99.90;;;;;;5052795;28;20660;-61
2022/05/25 09:51:25;;;;;;;6.07;1.23;;;20.90;99.90;;;;;;5053230;28;20298;-61
2022/05/25 09:53:57;;;;;;;4.47;1.00;;;21.00;99.90;;;;;;5040430;28;20210;-61
2022/05/25 09:56:31;;;;;;;1.93;1.00;;;21.00;99.90;;;;;;5052528;28;20201;-61
2022/05/25 09:59:06;;;;;;;3.77;1.30;;;20.50;99.90;;;;;;5046808;28;20218;-61
2022/05/25 10:01:41;;;;;;;3.10;1.10;;;20.80;99.90;;;;;;5052382;28;20526;-61
2022/05/25 10:04:52;;;;;;;3.30;1.10;;;21.20;99.90;;;;;;5036377;28;20314;-61
2022/05/25 10:08:09;;;;;;;0.93;0.93;;;22.00;99.90;;;;;;5051279;28;20194;-61
2022/05/25 10:10:50;;;;;;;3.57;1.43;;;21.40;99.90;;;;;;5084768;28;20239;-63
2022/05/25 10:13:23;;;;;;;1.13;1.03;;;19.90;99.90;;;;;;5063723;28;20197;-63
2022/05/25 10:15:52;;;;;;;1.50;1.20;;;19.00;99.90;;;;;;5048264;28;20232;-64
2022/05/25 10:18:35;;;;;;;1.13;0.90;;;19.30;99.90;;;;;;5083294;28;20205;-63
2022/05/25 10:21:04;;;;;;;2.87;1.00;;;20.40;99.90;;;;;;5044779;28;20229;-64
2022/05/25 10:23:33;;;;;;;3.30;1.00;;;20.80;99.90;;;;;;5044932;28;20267;-64
2022/05/25 10:26:13;;;;;;;1.10;1.03;;;20.20;99.90;;;;;;5050981;28;20279;-63
2022/05/25 10:28:47;;;;;;;2.43;0.90;;;19.30;99.90;;;;;;5045139;28;20192;-63
2022/05/25 10:37:14;;;;;;;3.13;1.00;;;18.30;99.90;;;;;;5047936;28;20680;-63
2022/05/25 10:39:46;;;;;;;4.03;1.20;;;18.90;99.90;;;;;;5049480;28;20534;-63
2022/05/25 10:42:18;;;;;;;1.80;1.10;;;20.00;99.90;;;;;;5051027;28;20205;-63
2022/05/25 10:44:57;;;;;;;4.33;1.03;;;20.60;99.90;;;;;;5051533;28;20200;-63
2022/05/25 10:47:39;;;;;;;3.23;0.83;;;21.00;99.90;;;;;;5052068;28;20220;-63
2022/05/25 10:50:14;;;;;;;2.73;1.10;;;21.50;99.90;;;;;;5049744;28;20205;-62
2022/05/25 10:52:47;;;;;;;0.80;0.80;;;21.60;99.90;;;;;;5040170;28;20215;-61
2022/05/25 10:55:16;;;;;;;6.43;1.20;;;21.30;99.90;;;;;;5053885;28;20202;-61
2022/05/25 10:58:19;;;;;;;4.93;1.10;;;21.40;99.90;;;;;;5053546;28;20290;-61
2022/05/25 11:01:03;;;;;;;2.10;1.00;;;21.50;99.90;;;;;;5048512;28;20659;-61
2022/05/25 11:03:53;;;;;;;1.80;0.97;;;21.40;99.90;;;;;;5045025;28;20275;-61
2022/05/25 11:06:53;;;;;;;3.77;1.10;;;21.40;99.90;;;;;;5048823;28;20194;-64
2022/05/25 11:09:48;;;;;;;2.97;1.07;;;21.20;99.90;;;;;;5047731;28;20189;-64
2022/05/25 11:12:27;;;;;;;1.40;0.80;;;20.60;99.90;;;;;;5057500;28;20270;-64
2022/05/25 11:15:09;;;;;;;3.37;1.50;;;19.90;99.90;;;;;;5053478;28;20204;-63
2022/05/25 11:17:58;;;;;;;3.17;1.10;;;19.20;99.90;;;;;;5053370;28;20205;-63
2022/05/25 11:20:32;;;;;;;1.57;1.27;;;18.80;99.90;;;;;;5051620;28;20212;-64
2022/05/25 11:23:27;;;;;;;3.57;1.30;;;19.30;99.90;;;;;;5054424;28;20262;-64
2022/05/25 11:26:09;;;;;;;2.07;1.23;;;19.50;99.90;;;;;;5047152;28;20224;-63
2022/05/25 11:29:10;;;;;;;2.47;1.00;;;19.40;99.90;;;;;;5053211;28;20200;-63
2022/05/25 11:31:48;;;;;;;2.47;1.10;;;19.30;99.90;;;;;;5050433;28;20276;-63
2022/05/25 11:34:32;;;;;;;1.20;1.10;;;19.00;99.90;;;;;;5047942;28;20283;-63
2022/05/25 11:37:23;;;;;;;4.13;1.13;;;18.90;99.90;;;;;;5054438;28;20255;-64
2022/05/25 11:39:59;;;;;;;3.33;1.57;;;19.50;99.90;;;;;;5056085;28;20219;-64
2022/05/25 11:43:03;;;;;;;4.27;1.00;;;19.90;99.90;;;;;;5052028;28;20283;-63
2022/05/25 11:45:43;;;;;;;1.67;1.10;;;20.20;99.90;;;;;;5047846;28;20200;-63
2022/05/25 11:48:48;;;;;;;1.37;1.13;;;20.20;99.90;;;;;;5052601;28;20197;-63
2022/05/25 11:51:23;;;;;;;3.20;1.20;;;20.40;99.90;;;;;;5087469;28;20188;-64
2022/05/25 11:54:10;;;;;;;3.70;1.00;;;19.90;99.90;;;;;;5054814;28;20678;-63
2022/05/25 11:56:52;;;;;;;1.07;1.07;;;19.70;99.90;;;;;;5045276;28;20203;-63
2022/05/25 11:59:44;;;;;;;2.47;1.20;;;19.40;99.90;;;;;;5054666;28;20205;-63
2022/05/25 12:02:56;;;;;;;1.57;1.23;;;19.50;99.90;;;;;;5046705;28;20656;-63
2022/05/25 12:05:33;;;;;;;3.03;1.53;;;19.70;99.90;;;;;;5054918;28;20189;-63
2022/05/25 12:08:18;;;;;;;5.57;1.77;;;20.20;99.90;;;;;;5053858;28;20183;-64
2022/05/25 12:10:54;;;;;;;4.33;1.50;;;20.30;99.90;;;;;;5050844;28;20637;-63
2022/05/25 12:13:33;;;;;;;5.73;1.37;;;20.40;99.90;;;;;;5077720;28;20274;-63
2022/05/25 12:16:09;;;;;;;1.30;1.30;;;20.50;99.90;;;;;;5054195;28;20280;-63
2022/05/25 12:18:45;;;;;;;2.40;1.13;;;20.30;99.90;;;;;;5054233;28;20192;-64
2022/05/25 12:21:19;;;;;;;2.40;1.00;;;20.20;99.90;;;;;;5052815;28;20612;-63
2022/05/25 12:23:50;;;;;;;5.57;1.23;;;20.40;99.90;;;;;;5054357;28;20200;-63
2022/05/25 12:26:23;;;;;;;4.63;1.50;;;20.40;99.90;;;;;;5054367;28;20288;-64
2022/05/25 12:28:53;;;;;;;3.93;1.07;;;20.20;99.90;;;;;;5054400;28;20228;-63
2022/05/25 12:31:27;;;;;;;3.13;1.13;;;19.80;99.90;;;;;;5054239;28;20681;-63
2022/05/25 12:33:56;;;;;;;0.90;0.90;;;19.50;99.90;;;;;;5054319;28;20192;-63
2022/05/25 12:36:26;;;;;;;4.33;1.23;;;19.30;99.90;;;;;;5054037;28;20228;-63
2022/05/25 12:38:54;;;;;;;0.93;0.80;;;19.30;99.90;;;;;;5054001;28;20303;-63
2022/05/25 12:41:27;;;;;;;2.53;0.90;;;19.60;99.90;;;;;;5036084;28;20527;-63
2022/05/25 12:44:00;;;;;;;1.97;1.10;;;19.70;99.90;;;;;;5040785;28;20280;-64
2022/05/25 12:49:48;;;;;;;0.80;0.80;;;19.70;99.90;;;;;;5045655;28;20273;-64
2022/05/25 12:52:43;;;;;;;2.43;0.90;;;19.80;99.90;;;;;;5036323;28;20264;-63
2022/05/25 12:55:28;;;;;;;1.17;1.00;;;19.70;99.90;;;;;;5083089;28;20192;-63
2022/05/25 12:57:57;;;;;;;1.90;1.10;;;19.70;99.90;;;;;;5053599;28;20276;-64
2022/05/25 13:00:39;;;;;;;2.97;1.10;;;19.50;99.90;;;;;;5053805;28;20213;-63
2022/05/25 13:03:22;;;;;;;5.23;1.20;;;19.30;99.90;;;;;;5053817;28;20875;-63
2022/05/25 13:05:59;;;;;;;2.13;1.03;;;19.30;99.90;;;;;;5048724;28;20193;-63
2022/05/25 13:09:09;;;;;;;2.33;1.10;;;19.40;99.90;;;;;;5053616;28;20552;-63
2022/05/25 13:11:50;;;;;;;3.43;1.10;;;19.60;99.90;;;;;;5052784;28;20204;-63
2022/05/25 13:14:54;;;;;;;1.40;1.10;;;19.60;99.90;;;;;;5049432;28;20679;-63
2022/05/25 13:17:47;;;;;;;2.67;0.80;;;19.50;99.90;;;;;;5049661;28;20193;-63
2022/05/25 13:20:46;;;;;;;4.40;1.10;;;19.40;99.90;;;;;;5036230;28;20218;-63
2022/05/25 13:23:47;;;;;;;1.13;1.03;;;19.20;99.90;;;;;;5058456;28;20327;-64
2022/05/25 13:26:18;;;;;;;2.10;1.00;;;19.20;99.90;;;;;;5021118;28;20204;-63
2022/05/25 13:28:54;;;;;;;1.10;1.00;;;19.20;99.90;;;;;;5053516;28;20192;-63
2022/05/25 13:31:34;;;;;;;3.10;1.50;;;19.30;99.90;;;;;;5053383;28;20196;-63
2022/05/25 13:34:10;;;;;;;5.43;1.33;;;19.40;99.90;;;;;;5052755;28;20215;-62
2022/05/25 13:36:44;;;;;;;2.83;1.30;;;19.40;99.90;;;;;;5080747;28;20322;-63
2022/05/25 13:39:18;;;;;;;9.60;1.10;;;19.20;99.90;;;;;;5044725;28;20224;-63
2022/05/25 13:42:10;;;;;;;1.53;0.90;;;19.10;99.90;;;;;;5048456;28;20200;-63
2022/05/25 13:44:48;;;;;;;1.70;1.03;;;19.00;99.90;;;;;;5052856;28;20275;-64
2022/05/25 13:47:20;;;;;;;2.57;0.97;;;18.90;99.90;;;;;;5052493;28;20198;-63
2022/05/25 13:49:50;;;;;;;4.40;1.20;;;19.00;99.90;;;;;;5052904;28;20193;-63
2022/05/25 13:52:23;;;;;;;3.70;1.53;;;19.40;99.90;;;;;;5059962;28;20700;-64